KMLP - Mullan Pass
Updated: Sun, 09-Dec-2018 6:53pm PST
Clear
Clear
 Wind from S
Wind: S at 6 mph , 9 km/h
Temperature : 25°F , -4°C
Wind Chill : 18°F , -8°C
Dew Point : 19°F , -7°C
Humidity : 80%
Barometer : 30.13 inHg , 1020.3 hPa
Clouds : Clear
Visibility : 10 miles , 16 km
2018/12/10 02:53 KMLP 100253Z AUTO 18005KT 10SM CLR M04/M07 A3013 RMK AO2 SLP252 T10391067 58012

 

KCOE - Coeur d Alene
Updated: Sun, 09-Dec-2018 6:56pm PST
Clear
Clear
 Wind from NE
Wind: NE at 10 mph , 17 km/h
Temperature : 30°F , -1°C
Wind Chill : 21°F , -6°C
Dew Point : 25°F , -4°C
Humidity : 80%
Barometer : 30.23 inHg , 1023.7 hPa
Clouds : Clear
Visibility : 10 miles , 16 km
2018/12/10 02:56 KCOE 100256Z AUTO 05009KT 10SM CLR M01/M04 A3023 RMK AO2 SLP280 T10111044 58013 FZRANO

 

KLWS - Lewiston
Updated: Sun, 09-Dec-2018 6:56pm PST
Clear
Clear
 Wind from ESE
Wind: ESE at 12 mph , 19 km/h
Temperature : 39°F , 4°C
Wind Chill : 32°F , 0°C
Dew Point : 28°F , -2°C
Humidity : 65%
Barometer : 30.23 inHg , 1023.7 hPa
Clouds : Clear
Visibility : 10 miles , 16 km
2018/12/10 02:56 KLWS 100256Z 12010KT 10SM CLR 04/M02 A3023 RMK AO2 SLP249 T00441022 58014

 

KGEG - Spokane Intl
Updated: Sun, 09-Dec-2018 6:53pm PST
Overcast
Overcast
 Wind from ENE
Wind: ENE at 7 mph , 11 km/h
Temperature : 34°F , 1°C
Wind Chill : 28°F , -2°C
Dew Point : 25°F , -4°C
Humidity : 70%
Barometer : 30.21 inHg , 1023 hPa
Clouds : Overcast
Visibility : 10 miles , 16 km
2018/12/10 02:53 KGEG 100253Z 06006KT 10SM BKN070 BKN180 OVC220 01/M04 A3021 RMK AO2 SLP253 T00061044 58013 $